Time;durP1;ratioP1;P1;durP2;ratioP2;P2;SDS_P1;SDS_P2;PMS_P1;PMS_P2;Temp;Humidity;BMP_temperature;BMP_pressure;BME280_temperature;BME280_humidity;BME280_pressure;Samples;Min_cycle;Max_cycle;Signal;HPM_P1;HPM_P2
2022/08/04 00:00:29;;;;;;;9.23;2.67;;;20.40;99.90;;;;;;5069077;28;20048;-73
2022/08/04 00:03:22;;;;;;;7.05;2.67;;;20.40;99.90;;;;;;5085813;28;20036;-74
2022/08/04 00:06:17;;;;;;;10.30;3.00;;;20.40;99.90;;;;;;5068941;28;20039;-74
2022/08/04 00:08:55;;;;;;;6.50;2.40;;;20.40;99.90;;;;;;5068119;28;20044;-73
2022/08/04 00:11:24;;;;;;;9.48;2.67;;;20.40;99.90;;;;;;5069198;28;20048;-73
2022/08/04 00:13:59;;;;;;;12.00;3.20;;;20.40;99.90;;;;;;5085310;28;20055;-73
2022/08/04 00:16:29;;;;;;;6.00;2.53;;;20.40;99.90;;;;;;5069891;28;20032;-74
2022/08/04 00:19:09;;;;;;;9.68;3.35;;;20.40;99.90;;;;;;5068656;28;20076;-73
2022/08/04 00:21:38;;;;;;;9.32;3.58;;;20.40;99.90;;;;;;5067501;28;20059;-74
2022/08/04 00:24:05;;;;;;;7.80;3.33;;;20.40;99.90;;;;;;5071242;28;20033;-74
2022/08/04 00:26:32;;;;;;;8.52;3.10;;;20.40;99.90;;;;;;5068673;28;20040;-74
2022/08/04 00:28:59;;;;;;;10.50;3.00;;;20.40;99.90;;;;;;5068329;28;20052;-73
2022/08/04 00:31:26;;;;;;;8.10;3.42;;;20.40;99.90;;;;;;5068192;28;20048;-74
2022/08/04 00:33:52;;;;;;;7.97;3.38;;;20.40;99.90;;;;;;5071083;28;20060;-74
2022/08/04 00:36:19;;;;;;;10.50;3.30;;;20.30;99.90;;;;;;5069690;28;20085;-73
2022/08/04 00:38:44;;;;;;;8.05;3.42;;;20.30;99.90;;;;;;5070678;28;20037;-74
2022/08/04 00:41:16;;;;;;;7.78;3.55;;;20.40;99.90;;;;;;5068489;28;20071;-74
2022/08/04 00:44:13;;;;;;;8.07;3.55;;;20.30;99.90;;;;;;5083806;28;20111;-73
2022/08/04 00:46:59;;;;;;;12.75;4.00;;;20.30;99.90;;;;;;5069679;28;20040;-73
2022/08/04 00:49:37;;;;;;;9.95;3.78;;;20.30;99.90;;;;;;5071805;28;20032;-73
2022/08/04 00:52:35;;;;;;;13.55;3.90;;;20.30;99.90;;;;;;5068650;28;20090;-74
2022/08/04 00:55:09;;;;;;;13.07;4.43;;;20.30;99.90;;;;;;5070509;28;20049;-73
2022/08/04 00:58:08;;;;;;;8.75;4.07;;;20.30;99.90;;;;;;5068069;28;20040;-74
2022/08/04 01:00:47;;;;;;;14.65;3.85;;;20.30;99.90;;;;;;5084932;28;20059;-73
2022/08/04 01:03:22;;;;;;;6.32;3.15;;;20.30;99.90;;;;;;5069050;28;20132;-73
2022/08/04 01:06:06;;;;;;;9.27;3.60;;;20.30;99.90;;;;;;5069255;28;20115;-73
2022/08/04 01:08:45;;;;;;;8.70;3.20;;;20.30;99.90;;;;;;5051900;28;20032;-74
2022/08/04 01:11:23;;;;;;;8.25;3.10;;;20.30;99.90;;;;;;5068164;28;20055;-74
2022/08/04 01:14:13;;;;;;;7.95;3.50;;;20.20;99.90;;;;;;5068387;28;20097;-73
2022/08/04 01:16:56;;;;;;;6.85;3.60;;;20.20;99.90;;;;;;5066624;28;20033;-73
2022/08/04 01:19:51;;;;;;;8.02;3.75;;;20.20;99.90;;;;;;5066988;28;20044;-73
2022/08/04 01:22:32;;;;;;;10.00;3.55;;;20.10;99.90;;;;;;5069593;28;20033;-73
2022/08/04 01:25:22;;;;;;;8.85;3.60;;;20.10;99.90;;;;;;5068116;28;20634;-73
2022/08/04 01:28:24;;;;;;;11.25;3.92;;;20.10;99.90;;;;;;5069136;28;20546;-74
2022/08/04 01:30:56;;;;;;;9.07;3.78;;;20.00;99.90;;;;;;5070297;28;20046;-73
2022/08/04 01:33:25;;;;;;;8.18;3.65;;;20.00;99.90;;;;;;5067062;28;20048;-74
2022/08/04 01:35:54;;;;;;;9.13;3.88;;;20.00;99.90;;;;;;5078811;28;20054;-73
2022/08/04 01:38:33;;;;;;;11.82;4.63;;;20.00;99.90;;;;;;5068833;28;20054;-74
2022/08/04 01:41:06;;;;;;;11.27;4.03;;;20.00;99.90;;;;;;5068230;28;20044;-73
2022/08/04 01:43:39;;;;;;;13.45;4.50;;;19.90;99.90;;;;;;5068824;28;20535;-73
2022/08/04 01:46:05;;;;;;;9.25;4.13;;;19.90;99.90;;;;;;5068984;28;20035;-74
2022/08/04 01:48:33;;;;;;;11.50;4.05;;;19.90;99.90;;;;;;5053101;28;20040;-74
2022/08/04 01:51:04;;;;;;;10.65;4.55;;;19.90;99.90;;;;;;5069020;28;20139;-73
2022/08/04 01:53:36;;;;;;;10.45;4.53;;;19.80;99.90;;;;;;5070058;28;20039;-73
2022/08/04 01:56:03;;;;;;;10.77;4.80;;;19.90;99.90;;;;;;5071591;28;20040;-74
2022/08/04 01:58:30;;;;;;;12.57;4.43;;;19.90;99.90;;;;;;5070907;28;20040;-73
2022/08/04 02:01:05;;;;;;;8.48;4.00;;;19.90;99.90;;;;;;5070282;28;20049;-73
2022/08/04 02:03:32;;;;;;;10.15;4.20;;;19.90;99.90;;;;;;5066316;28;20071;-73
2022/08/04 02:06:13;;;;;;;10.85;3.95;;;19.90;99.90;;;;;;5067868;28;20131;-73
2022/08/04 02:09:13;;;;;;;10.13;4.00;;;19.80;99.90;;;;;;5048674;28;20447;-74
2022/08/04 02:11:42;;;;;;;9.48;4.95;;;19.80;99.90;;;;;;5065124;28;20055;-73
2022/08/04 02:14:39;;;;;;;10.75;4.65;;;19.80;99.90;;;;;;5064924;28;20074;-74
2022/08/04 02:17:23;;;;;;;8.45;3.95;;;19.80;99.90;;;;;;5066209;28;20037;-74
2022/08/04 02:20:05;;;;;;;8.07;4.57;;;19.70;99.90;;;;;;5064987;28;20087;-74
2022/08/04 02:22:34;;;;;;;12.05;4.90;;;19.70;99.90;;;;;;5067002;28;20055;-74
2022/08/04 02:25:09;;;;;;;12.85;4.63;;;19.60;99.90;;;;;;5063346;28;20040;-73
2022/08/04 02:28:04;;;;;;;13.90;5.05;;;19.60;99.90;;;;;;5082244;28;20148;-74
2022/08/04 02:30:56;;;;;;;11.13;4.60;;;19.60;99.90;;;;;;5066788;28;20048;-74
2022/08/04 02:33:39;;;;;;;13.40;5.03;;;19.60;99.90;;;;;;5053091;28;20044;-73
2022/08/04 02:36:08;;;;;;;11.35;5.18;;;19.60;99.90;;;;;;5080688;28;20036;-73
2022/08/04 02:38:48;;;;;;;9.70;4.60;;;19.60;99.90;;;;;;5064426;28;20561;-73
2022/08/04 02:41:16;;;;;;;12.40;5.25;;;19.50;99.90;;;;;;5063641;28;20037;-73
2022/08/04 02:43:46;;;;;;;12.05;5.18;;;19.50;99.90;;;;;;5064193;28;20081;-73
2022/08/04 02:46:12;;;;;;;13.63;4.82;;;19.50;99.90;;;;;;5079706;28;20044;-73
2022/08/04 02:48:42;;;;;;;10.85;4.85;;;19.50;99.90;;;;;;5062770;28;20051;-73
2022/08/04 02:51:11;;;;;;;9.02;5.03;;;19.50;99.90;;;;;;5062441;28;20055;-73
2022/08/04 02:53:40;;;;;;;14.55;5.60;;;19.50;99.90;;;;;;5080039;28;20145;-73
2022/08/04 02:56:08;;;;;;;8.35;4.97;;;19.50;99.90;;;;;;5060430;28;20041;-73
2022/08/04 02:58:35;;;;;;;9.98;5.38;;;19.40;99.90;;;;;;5061192;28;20173;-73
2022/08/04 03:01:03;;;;;;;10.50;4.90;;;19.40;99.90;;;;;;5058873;28;20048;-73
2022/08/04 03:03:48;;;;;;;14.80;5.28;;;19.40;99.90;;;;;;5062415;28;20051;-73
2022/08/04 03:06:36;;;;;;;8.93;4.97;;;19.40;99.90;;;;;;5059610;28;20079;-73
2022/08/04 03:09:23;;;;;;;11.65;5.22;;;19.30;99.90;;;;;;5077905;28;20085;-73
2022/08/04 03:12:11;;;;;;;14.57;5.53;;;19.30;99.90;;;;;;5061728;28;20040;-73
2022/08/04 03:15:14;;;;;;;10.82;5.70;;;19.30;99.90;;;;;;5063504;28;20169;-73
2022/08/04 03:18:07;;;;;;;8.85;5.70;;;19.30;99.90;;;;;;5062738;28;20044;-73
2022/08/04 03:20:55;;;;;;;9.52;5.82;;;19.30;99.90;;;;;;5061526;28;20425;-73
2022/08/04 03:23:58;;;;;;;9.10;6.13;;;19.30;99.90;;;;;;5062804;28;20064;-73
2022/08/04 03:26:38;;;;;;;11.85;5.95;;;19.30;99.90;;;;;;5063395;28;20074;-73
2022/08/04 03:29:42;;;;;;;11.75;5.55;;;19.20;99.90;;;;;;5061952;28;20033;-73
2022/08/04 03:32:33;;;;;;;8.90;5.43;;;19.20;99.90;;;;;;5063680;28;20040;-73
2022/08/04 03:35:21;;;;;;;8.48;5.00;;;19.10;99.90;;;;;;5062364;28;20144;-73
2022/08/04 03:38:00;;;;;;;11.40;5.45;;;19.10;99.90;;;;;;5063803;28;20047;-73
2022/08/04 03:41:03;;;;;;;14.10;6.28;;;19.10;99.90;;;;;;5062525;28;20068;-73
2022/08/04 03:43:47;;;;;;;10.07;6.10;;;19.10;99.90;;;;;;5063444;28;20039;-73
2022/08/04 03:46:31;;;;;;;9.40;5.63;;;19.10;99.90;;;;;;5061298;28;20037;-73
2022/08/04 03:49:35;;;;;;;11.15;5.50;;;19.10;99.90;;;;;;5063145;28;20052;-73
2022/08/04 03:55:39;;;;;;;10.90;5.50;;;19.00;99.90;;;;;;5080421;28;20050;-73
2022/08/04 03:58:16;;;;;;;8.65;5.30;;;19.10;99.90;;;;;;5078413;28;20124;-73
2022/08/04 04:01:00;;;;;;;9.60;4.60;;;19.10;99.90;;;;;;5063291;28;20040;-73
2022/08/04 04:04:02;;;;;;;14.60;5.53;;;19.10;99.90;;;;;;5064784;28;20040;-73
2022/08/04 04:06:48;;;;;;;10.20;5.00;;;19.00;99.90;;;;;;5062019;28;20037;-73
2022/08/04 04:09:27;;;;;;;8.50;5.35;;;19.00;99.90;;;;;;5062642;28;20110;-73
2022/08/04 04:12:36;;;;;;;10.95;5.88;;;19.10;99.90;;;;;;5077780;28;20517;-73
2022/08/04 04:15:29;;;;;;;9.00;5.63;;;19.00;99.90;;;;;;5043913;28;20048;-73
2022/08/04 04:18:01;;;;;;;8.52;5.53;;;19.10;99.90;;;;;;5079900;28;20040;-73
2022/08/04 04:20:35;;;;;;;12.70;6.03;;;19.10;99.90;;;;;;5061623;28;20029;-73
2022/08/04 04:23:21;;;;;;;9.48;5.32;;;19.10;99.90;;;;;;5061865;28;20409;-73
2022/08/04 04:26:16;;;;;;;9.13;5.50;;;19.10;99.90;;;;;;5060651;28;20040;-73
2022/08/04 04:28:47;;;;;;;7.65;5.63;;;19.10;99.90;;;;;;5063339;28;20483;-73
2022/08/04 04:31:36;;;;;;;15.30;5.75;;;19.00;99.90;;;;;;5063971;28;20044;-73
2022/08/04 04:34:19;;;;;;;10.77;5.10;;;19.10;99.90;;;;;;5062102;28;20048;-73
2022/08/04 04:37:12;;;;;;;13.00;4.78;;;19.10;99.90;;;;;;5061493;28;20068;-73
2022/08/04 04:40:07;;;;;;;9.63;5.30;;;19.00;99.90;;;;;;5079593;28;20048;-73
2022/08/04 04:42:32;;;;;;;9.43;4.47;;;19.00;99.90;;;;;;5070670;28;20091;-73
2022/08/04 04:45:11;;;;;;;9.45;4.40;;;19.00;99.90;;;;;;5062470;28;20086;-73
2022/08/04 04:48:03;;;;;;;10.75;4.88;;;18.90;99.90;;;;;;5064899;28;20499;-73
2022/08/04 04:50:38;;;;;;;7.32;4.30;;;18.90;99.90;;;;;;5065693;28;20035;-73
2022/08/04 04:53:28;;;;;;;11.60;4.97;;;18.90;99.90;;;;;;5066084;28;20136;-73
2022/08/04 04:56:17;;;;;;;9.23;4.75;;;18.90;99.90;;;;;;5066497;28;20094;-73
2022/08/04 04:58:43;;;;;;;14.00;5.80;;;18.80;99.90;;;;;;5065516;28;20052;-73
2022/08/04 05:01:35;;;;;;;10.38;5.85;;;18.80;99.90;;;;;;5066041;28;20040;-73
2022/08/04 05:04:42;;;;;;;8.55;5.28;;;18.80;99.90;;;;;;5065927;28;20055;-73
2022/08/04 05:07:19;;;;;;;12.60;6.70;;;18.80;99.90;;;;;;5065723;28;20261;-73
2022/08/04 05:10:19;;;;;;;12.70;6.32;;;18.80;99.90;;;;;;5064678;28;20513;-73
2022/08/04 05:13:03;;;;;;;8.23;6.18;;;18.90;99.90;;;;;;5075721;28;20028;-73
2022/08/04 05:15:34;;;;;;;9.80;6.25;;;18.90;99.90;;;;;;5066039;28;20033;-73
2022/08/04 05:18:02;;;;;;;8.00;6.25;;;19.00;99.90;;;;;;5081428;28;20032;-73
2022/08/04 05:20:39;;;;;;;9.23;5.70;;;19.00;99.90;;;;;;5065756;28;20060;-73
2022/08/04 05:23:17;;;;;;;10.00;6.22;;;19.10;99.90;;;;;;5065848;28;20049;-73
2022/08/04 05:25:56;;;;;;;10.63;5.80;;;19.20;99.90;;;;;;5063778;28;20502;-73
2022/08/04 05:28:44;;;;;;;13.75;6.30;;;19.30;99.90;;;;;;5066063;28;20032;-73
2022/08/04 05:31:22;;;;;;;16.52;7.82;;;19.30;99.90;;;;;;5082167;28;20040;-74
2022/08/04 05:33:54;;;;;;;13.52;8.30;;;19.40;99.90;;;;;;5064666;28;20044;-74
2022/08/04 05:36:23;;;;;;;11.88;7.82;;;19.50;99.90;;;;;;5064703;28;20040;-73
2022/08/04 05:38:53;;;;;;;15.48;7.53;;;19.50;99.90;;;;;;5064100;28;20082;-73
2022/08/04 05:41:20;;;;;;;11.25;7.32;;;19.60;99.90;;;;;;5064391;28;20048;-73
2022/08/04 05:43:47;;;;;;;11.63;7.50;;;19.60;99.90;;;;;;5064585;28;20090;-73
2022/08/04 05:46:15;;;;;;;13.57;7.38;;;19.70;99.90;;;;;;5064927;28;20625;-73
2022/08/04 05:48:42;;;;;;;12.43;7.05;;;19.70;99.90;;;;;;5079720;28;20048;-73
2022/08/04 05:51:09;;;;;;;12.32;7.65;;;19.80;99.90;;;;;;5065073;28;20048;-73
2022/08/04 05:53:36;;;;;;;15.80;7.55;;;19.90;99.90;;;;;;5063664;28;20048;-73
2022/08/04 05:56:04;;;;;;;13.80;8.27;;;19.90;99.90;;;;;;5065365;28;20074;-73
2022/08/04 05:58:30;;;;;;;11.50;7.90;;;19.90;99.90;;;;;;5064618;28;20052;-73
2022/08/04 06:00:58;;;;;;;19.08;9.45;;;20.00;99.90;;;;;;5065127;28;20490;-73
2022/08/04 06:03:26;;;;;;;13.52;8.43;;;20.00;99.90;;;;;;5064954;28;20040;-73
2022/08/04 06:05:52;;;;;;;12.68;7.63;;;20.10;99.90;;;;;;5065036;28;20032;-73
2022/08/04 06:08:18;;;;;;;15.50;8.30;;;20.20;99.90;;;;;;5065840;28;20398;-73
2022/08/04 06:10:46;;;;;;;11.40;7.75;;;20.20;99.90;;;;;;5065003;28;20523;-73
2022/08/04 06:13:16;;;;;;;14.88;8.50;;;20.30;99.90;;;;;;5064590;28;20040;-73
2022/08/04 06:15:45;;;;;;;12.77;9.35;;;20.40;99.90;;;;;;5064554;28;20044;-73
2022/08/04 06:18:13;;;;;;;18.38;9.82;;;20.40;99.90;;;;;;5063157;28;20051;-74
2022/08/04 06:20:41;;;;;;;13.65;9.00;;;20.50;99.90;;;;;;5066230;28;20044;-73
2022/08/04 06:23:12;;;;;;;14.50;9.20;;;20.60;99.90;;;;;;5063276;28;20047;-73
2022/08/04 06:25:48;;;;;;;15.60;8.55;;;20.70;99.90;;;;;;5063415;28;20078;-73
2022/08/04 06:28:16;;;;;;;14.18;8.60;;;20.80;99.90;;;;;;5062698;28;20052;-74
2022/08/04 06:30:46;;;;;;;13.38;9.10;;;20.90;99.90;;;;;;5064444;28;20045;-74
2022/08/04 06:33:26;;;;;;;11.98;8.18;;;21.00;99.90;;;;;;5063968;28;20389;-73
2022/08/04 06:35:54;;;;;;;18.23;8.05;;;21.10;99.90;;;;;;5080408;28;20036;-73
2022/08/04 06:38:24;;;;;;;14.15;7.90;;;21.30;99.90;;;;;;5062298;28;20067;-73
2022/08/04 06:40:52;;;;;;;12.57;8.57;;;21.30;99.90;;;;;;5063523;28;20040;-74
2022/08/04 06:43:18;;;;;;;10.98;7.35;;;21.50;99.90;;;;;;5061866;28;20039;-73
2022/08/04 06:45:45;;;;;;;11.60;7.30;;;21.60;99.90;;;;;;5063437;28;20122;-74
2022/08/04 06:48:13;;;;;;;11.85;6.95;;;21.70;99.90;;;;;;5064238;28;20048;-73
2022/08/04 06:50:40;;;;;;;15.25;7.88;;;21.80;99.90;;;;;;5062935;28;20052;-73
2022/08/04 06:53:06;;;;;;;18.70;7.57;;;21.90;99.90;;;;;;5062170;28;20127;-73
2022/08/04 06:55:33;;;;;;;12.07;5.75;;;22.10;99.90;;;;;;5063899;28;20470;-74
2022/08/04 06:58:01;;;;;;;10.18;6.07;;;22.20;99.90;;;;;;5078001;28;20040;-74
2022/08/04 07:00:28;;;;;;;10.25;6.55;;;22.40;99.90;;;;;;5061950;28;20040;-74
2022/08/04 07:02:54;;;;;;;11.57;5.22;;;22.50;99.90;;;;;;5060659;28;20044;-73
2022/08/04 07:05:20;;;;;;;10.70;5.60;;;22.70;99.90;;;;;;5066760;28;20043;-73
2022/08/04 07:07:47;;;;;;;14.60;6.40;;;22.80;99.90;;;;;;5068757;28;20135;-74
2022/08/04 07:10:13;;;;;;;15.80;5.75;;;22.90;99.90;;;;;;5068858;28;20029;-74
2022/08/04 07:12:40;;;;;;;16.10;5.75;;;23.10;99.90;;;;;;5069501;28;20082;-74
2022/08/04 07:15:07;;;;;;;13.23;5.95;;;23.20;99.90;;;;;;5063564;28;20040;-74
2022/08/04 07:17:35;;;;;;;14.35;5.40;;;23.30;99.90;;;;;;5064732;28;20041;-73
2022/08/04 07:20:05;;;;;;;14.35;5.60;;;23.40;99.90;;;;;;5084830;28;20086;-74
2022/08/04 07:22:32;;;;;;;9.88;5.32;;;23.50;99.90;;;;;;5067331;28;20090;-74
2022/08/04 07:24:58;;;;;;;13.10;5.22;;;23.60;99.90;;;;;;5063815;28;20051;-73
2022/08/04 07:27:25;;;;;;;7.18;3.67;;;23.70;99.90;;;;;;5047033;28;20120;-73
2022/08/04 07:29:51;;;;;;;11.63;4.40;;;23.80;99.90;;;;;;5070057;28;20043;-73
2022/08/04 07:32:20;;;;;;;14.35;5.03;;;23.80;99.90;;;;;;5050056;28;20029;-73
2022/08/04 07:34:50;;;;;;;10.57;5.07;;;23.90;99.90;;;;;;5067937;28;20044;-73
2022/08/04 07:37:17;;;;;;;14.65;4.97;;;24.00;99.90;;;;;;5085385;28;20036;-73
2022/08/04 07:39:43;;;;;;;17.45;5.10;;;24.10;99.90;;;;;;5069406;28;20074;-73
2022/08/04 07:42:09;;;;;;;14.93;5.18;;;24.30;99.90;;;;;;5068467;28;20044;-73
2022/08/04 07:44:36;;;;;;;12.18;4.60;;;24.30;99.90;;;;;;5052115;28;20057;-73
2022/08/04 07:47:04;;;;;;;12.45;4.75;;;24.40;99.90;;;;;;5069425;28;20039;-73
2022/08/04 07:49:30;;;;;;;12.57;4.63;;;24.50;99.90;;;;;;5069672;28;20067;-73
2022/08/04 07:51:56;;;;;;;12.23;3.75;;;24.60;99.90;;;;;;5070348;28;20048;-73
2022/08/04 07:54:23;;;;;;;14.02;4.82;;;24.70;99.90;;;;;;5066131;28;20071;-78
2022/08/04 07:56:50;;;;;;;19.85;4.38;;;24.80;99.90;;;;;;5061407;28;20487;-78
2022/08/04 07:59:17;;;;;;;14.52;4.30;;;24.80;99.90;;;;;;5052905;28;20047;-78
2022/08/04 08:01:44;;;;;;;11.45;4.55;;;25.00;99.90;;;;;;5065701;28;20059;-77
2022/08/04 08:04:10;;;;;;;11.25;3.50;;;25.10;99.90;;;;;;5060574;28;20044;-77
2022/08/04 08:06:39;;;;;;;11.05;3.10;;;25.20;99.90;;;;;;5050856;28;20045;-77
2022/08/04 08:09:08;;;;;;;11.20;3.35;;;25.20;99.90;;;;;;5066414;28;20040;-78
2022/08/04 08:11:34;;;;;;;10.18;3.22;;;25.30;99.90;;;;;;5057599;28;20050;-78
2022/08/04 08:14:00;;;;;;;13.75;3.50;;;25.40;99.90;;;;;;5060424;28;20043;-79
2022/08/04 08:16:27;;;;;;;9.32;3.63;;;25.50;99.90;;;;;;5064000;28;20083;-78
2022/08/04 08:18:53;;;;;;;8.98;3.08;;;25.60;99.90;;;;;;5063124;28;20044;-78
2022/08/04 08:21:20;;;;;;;10.60;3.22;;;25.70;99.90;;;;;;5066651;28;20125;-78
2022/08/04 08:23:46;;;;;;;10.93;3.10;;;25.80;99.90;;;;;;5081617;28;20494;-78
2022/08/04 08:26:11;;;;;;;10.45;3.53;;;25.90;99.90;;;;;;5065065;28;20099;-78
2022/08/04 08:28:38;;;;;;;9.82;3.00;;;26.00;99.90;;;;;;5066640;28;20037;-78
2022/08/04 08:31:04;;;;;;;9.38;3.00;;;26.20;99.90;;;;;;5083813;28;20040;-78
2022/08/04 08:33:31;;;;;;;6.70;3.20;;;26.30;99.90;;;;;;5067444;28;20211;-78
2022/08/04 08:36:00;;;;;;;11.88;3.00;;;26.40;99.90;;;;;;5067458;28;20094;-77
2022/08/04 08:38:37;;;;;;;10.75;3.30;;;26.50;99.90;;;;;;5064886;28;20268;-77
2022/08/04 08:41:32;;;;;;;12.40;3.33;;;26.70;99.90;;;;;;5065848;28;20047;-77
2022/08/04 08:44:20;;;;;;;11.85;3.00;;;26.70;99.90;;;;;;5067880;28;20186;-77
2022/08/04 08:47:04;;;;;;;16.88;3.65;;;26.80;99.90;;;;;;5062164;28;20072;-77
2022/08/04 08:49:51;;;;;;;13.05;3.72;;;26.80;99.90;;;;;;5072140;28;20033;-77
2022/08/04 08:52:23;;;;;;;13.63;3.50;;;26.80;99.90;;;;;;5056592;28;20052;-78
2022/08/04 08:55:31;;;;;;;16.05;3.42;;;26.90;99.90;;;;;;5069414;28;20068;-77
2022/08/04 08:58:22;;;;;;;13.02;3.30;;;27.00;99.90;;;;;;5079982;28;20077;-77
2022/08/04 09:01:17;;;;;;;10.52;3.35;;;27.10;99.90;;;;;;5070067;28;20040;-77
2022/08/04 09:03:55;;;;;;;15.55;4.00;;;27.10;99.90;;;;;;5088475;28;20037;-77
2022/08/04 09:06:36;;;;;;;7.18;3.00;;;27.20;99.90;;;;;;5074134;28;20119;-77
2022/08/04 09:09:40;;;;;;;9.93;3.47;;;27.20;99.90;;;;;;5074243;28;20165;-77
2022/08/04 09:12:32;;;;;;;12.30;4.20;;;27.40;99.90;;;;;;5064727;28;20082;-77
2022/08/04 09:15:35;;;;;;;12.70;4.20;;;27.40;99.90;;;;;;5067037;28;20543;-77
2022/08/04 09:18:12;;;;;;;11.93;4.07;;;27.50;99.90;;;;;;5063187;28;20051;-77
2022/08/04 09:20:47;;;;;;;13.07;4.15;;;27.50;99.90;;;;;;5071375;28;20037;-77
2022/08/04 09:23:47;;;;;;;14.20;3.88;;;27.70;99.90;;;;;;5070212;28;20048;-77
2022/08/04 09:26:44;;;;;;;10.20;3.50;;;27.80;99.90;;;;;;5069936;28;20102;-77
2022/08/04 09:29:16;;;;;;;11.63;4.10;;;28.00;99.90;;;;;;5071989;28;20040;-77
2022/08/04 09:32:05;;;;;;;11.55;3.47;;;28.00;99.90;;;;;;5073112;28;20044;-77
2022/08/04 09:34:54;;;;;;;12.45;3.80;;;28.10;99.90;;;;;;5088797;28;20079;-77
2022/08/04 09:37:29;;;;;;;11.43;3.60;;;28.20;99.90;;;;;;5069486;28;20063;-78
2022/08/04 09:40:04;;;;;;;10.68;3.42;;;28.40;99.90;;;;;;5070769;28;20135;-77
2022/08/04 09:42:55;;;;;;;10.43;3.70;;;28.30;99.90;;;;;;5069216;28;20070;-77
2022/08/04 09:45:37;;;;;;;11.23;2.80;;;28.30;99.90;;;;;;5073845;28;20048;-77
2022/08/04 09:48:24;;;;;;;17.83;3.50;;;28.40;99.90;;;;;;5072295;28;20109;-77
2022/08/04 09:50:57;;;;;;;10.18;3.33;;;28.50;99.90;;;;;;5073058;28;20068;-78
2022/08/04 09:53:49;;;;;;;9.25;3.63;;;28.70;99.90;;;;;;5069911;28;20068;-77
2022/08/04 09:56:23;;;;;;;;;;;28.80;99.90;;;;;;5073549;28;20044;-77
2022/08/04 09:58:52;;;;;;;8.82;3.13;;;28.90;99.90;;;;;;5068708;28;19923;-78
2022/08/04 10:01:23;;;;;;;10.32;3.20;;;28.80;99.90;;;;;;5071859;28;20051;-77
2022/08/04 10:03:58;;;;;;;11.23;3.05;;;28.90;99.90;;;;;;5058093;28;23801;-77
2022/08/04 10:06:47;;;;;;;12.10;3.30;;;28.90;99.90;;;;;;5073636;28;20743;-78
2022/08/04 10:09:35;;;;;;;10.48;2.97;;;28.80;99.90;;;;;;5071887;28;20050;-77
2022/08/04 10:12:22;;;;;;;11.95;3.20;;;28.80;99.90;;;;;;5089593;28;20379;-77
2022/08/04 10:14:51;;;;;;;10.93;3.00;;;28.80;99.90;;;;;;5072819;28;20495;-77
2022/08/04 10:17:54;;;;;;;8.45;2.80;;;28.80;99.90;;;;;;5072368;28;20583;-77
2022/08/04 10:20:50;;;;;;;7.43;2.80;;;28.60;99.90;;;;;;5066322;28;20083;-77
2022/08/04 10:23:24;;;;;;;12.55;2.95;;;28.50;99.90;;;;;;5070698;28;20433;-78
2022/08/04 10:26:13;;;;;;;9.38;2.42;;;28.40;99.90;;;;;;5064757;28;20037;-77
2022/08/04 10:28:48;;;;;;;8.32;2.35;;;28.40;99.90;;;;;;5060848;28;20040;-73
2022/08/04 10:31:23;;;;;;;6.70;2.30;;;28.60;99.90;;;;;;5054310;28;20068;-73
2022/08/04 10:34:00;;;;;;;7.25;2.00;;;28.70;99.90;;;;;;5070382;28;20491;-73
2022/08/04 10:36:57;;;;;;;7.20;1.77;;;28.80;99.90;;;;;;5087967;28;20466;-73
2022/08/04 10:42:46;;;;;;;4.88;1.60;;;29.20;99.90;;;;;;5058866;28;20131;-73
2022/08/04 10:45:24;;;;;;;7.65;1.80;;;29.40;99.90;;;;;;5089324;28;20044;-72
2022/08/04 10:48:05;;;;;;;6.13;1.60;;;29.50;99.90;;;;;;5070043;28;20433;-73
2022/08/04 10:50:36;;;;;;;15.82;9.48;;;29.60;99.90;;;;;;5073458;28;20457;-72
2022/08/04 10:53:21;;;;;;;6.68;1.70;;;29.70;99.90;;;;;;5073876;28;20040;-73
2022/08/04 10:55:58;;;;;;;3.53;1.58;;;29.60;97.60;;;;;;5073166;28;20037;-73
2022/08/04 10:58:28;;;;;;;7.78;2.35;;;29.50;99.20;;;;;;5061961;28;20028;-73
2022/08/04 11:00:59;;;;;;;12.82;2.13;;;29.50;99.80;;;;;;5051847;28;20444;-73
2022/08/04 11:03:55;;;;;;;7.00;1.70;;;29.50;97.90;;;;;;5051124;28;20032;-72
2022/08/04 11:06:24;;;;;;;6.38;1.80;;;29.30;99.90;;;;;;5049148;28;20044;-72
2022/08/04 11:08:53;;;;;;;7.20;1.80;;;29.30;99.90;;;;;;5066011;28;20090;-72
2022/08/04 11:11:46;;;;;;;6.28;1.92;;;29.60;99.90;;;;;;5037519;28;20102;-73
2022/08/04 11:14:16;;;;;;;7.78;1.50;;;29.90;99.90;;;;;;5071979;28;20372;-72
2022/08/04 11:16:48;;;;;;;8.60;2.25;;;30.20;98.40;;;;;;5078904;28;20028;-72
2022/08/04 11:19:23;;;;;;;10.40;2.10;;;30.30;98.90;;;;;;5071267;28;20440;-72
2022/08/04 11:21:56;;;;;;;7.63;1.83;;;30.40;96.90;;;;;;5069495;28;20051;-73
2022/08/04 11:24:31;;;;;;;6.10;1.67;;;30.30;98.90;;;;;;5064818;28;20044;-73
2022/08/04 11:27:37;;;;;;;5.93;1.67;;;30.10;99.90;;;;;;5064188;28;20116;-73
2022/08/04 11:30:09;;;;;;;10.93;2.00;;;30.00;99.40;;;;;;5052944;28;20040;-73
2022/08/04 11:32:51;;;;;;;9.82;2.00;;;30.00;99.90;;;;;;5069650;28;20178;-73
2022/08/04 11:35:49;;;;;;;11.07;1.73;;;30.30;99.90;;;;;;5086775;28;20131;-72
2022/08/04 11:38:23;;;;;;;9.50;1.95;;;30.40;98.30;;;;;;5064558;28;20395;-72
2022/08/04 11:40:55;;;;;;;7.68;1.85;;;30.40;97.40;;;;;;5070813;28;20456;-72
2022/08/04 11:43:34;;;;;;;11.35;1.92;;;30.20;98.10;;;;;;5069463;28;20115;-72
2022/08/04 11:46:06;;;;;;;7.78;1.60;;;30.10;98.70;;;;;;5067609;28;20081;-72
2022/08/04 11:48:36;;;;;;;5.63;1.70;;;29.80;99.70;;;;;;5086808;28;20037;-73
2022/08/04 11:51:04;;;;;;;5.32;1.63;;;29.50;99.80;;;;;;5068373;28;20101;-72
2022/08/04 11:53:33;;;;;;;8.05;1.98;;;29.30;99.90;;;;;;5069116;28;20479;-72
2022/08/04 11:56:02;;;;;;;6.40;1.85;;;29.10;99.90;;;;;;5073556;28;20394;-73
2022/08/04 11:58:29;;;;;;;4.25;1.30;;;29.00;99.90;;;;;;5074065;28;20040;-72
2022/08/04 12:01:11;;;;;;;4.88;1.52;;;28.90;99.90;;;;;;5071861;28;20509;-73
2022/08/04 12:03:55;;;;;;;;;;;28.70;99.90;;;;;;5042626;28;20110;-72
2022/08/04 12:06:24;;;;;;;6.72;1.55;;;28.50;99.90;;;;;;5074822;28;19916;-73
2022/08/04 12:09:11;;;;;;;3.53;1.40;;;28.40;99.90;;;;;;5057907;28;20060;-73
2022/08/04 12:11:48;;;;;;;3.15;1.10;;;28.30;99.90;;;;;;5092825;28;20398;-72
2022/08/04 12:14:18;;;;;;;3.13;1.30;;;28.10;99.90;;;;;;5072811;28;20041;-73
2022/08/04 12:16:51;;;;;;;1.67;1.00;;;27.80;99.90;;;;;;5068271;28;20136;-73
2022/08/04 12:19:26;;;;;;;3.83;1.00;;;27.50;99.90;;;;;;5051421;28;20040;-72
2022/08/04 12:21:55;;;;;;;4.22;1.05;;;27.30;99.90;;;;;;5051858;28;20078;-72
2022/08/04 12:24:26;;;;;;;3.45;1.35;;;27.20;99.90;;;;;;5066557;28;20041;-73
2022/08/04 12:26:55;;;;;;;3.80;1.30;;;27.10;99.90;;;;;;5069208;28;20035;-72
2022/08/04 12:29:29;;;;;;;3.35;1.38;;;27.00;99.90;;;;;;5068878;28;20043;-72
2022/08/04 12:32:02;;;;;;;3.03;1.30;;;26.70;99.90;;;;;;5067007;28;20048;-72
2022/08/04 12:34:37;;;;;;;4.90;1.23;;;26.50;99.90;;;;;;5066596;28;20580;-73
2022/08/04 12:37:05;;;;;;;4.35;1.27;;;26.30;99.90;;;;;;5032939;28;20036;-72
2022/08/04 12:39:34;;;;;;;4.35;1.30;;;26.10;99.90;;;;;;5067245;28;20041;-72
2022/08/04 12:41:59;;;;;;;3.58;1.30;;;26.00;99.90;;;;;;5067972;28;20043;-72
2022/08/04 12:44:32;;;;;;;3.67;1.25;;;25.90;99.90;;;;;;5067873;28;20398;-73
2022/08/04 12:47:00;;;;;;;2.88;1.30;;;25.80;99.90;;;;;;5068160;28;20059;-71
2022/08/04 12:49:27;;;;;;;6.13;1.40;;;25.80;99.90;;;;;;5064493;28;20028;-71
2022/08/04 12:51:55;;;;;;;4.38;1.33;;;25.60;99.90;;;;;;5067056;28;20155;-71
2022/08/04 12:54:25;;;;;;;2.33;1.27;;;25.60;99.90;;;;;;5064537;28;20078;-71
2022/08/04 12:56:56;;;;;;;3.13;1.13;;;25.70;99.90;;;;;;5066934;28;20114;-71
2022/08/04 12:59:22;;;;;;;7.18;1.38;;;25.80;99.90;;;;;;5066303;28;20033;-71
2022/08/04 13:01:50;;;;;;;4.10;1.15;;;25.90;99.90;;;;;;5066928;28;20079;-71
2022/08/04 13:04:21;;;;;;;2.28;0.85;;;26.10;99.90;;;;;;5067118;28;20067;-71
2022/08/04 13:07:00;;;;;;;;;;;26.30;99.90;;;;;;5064825;28;20036;-70
2022/08/04 13:09:31;;;;;;;1.48;1.08;;;26.40;99.90;;;;;;5068474;28;19916;-71
2022/08/04 13:12:01;;;;;;;3.88;1.20;;;26.80;99.90;;;;;;5066256;28;20045;-71
2022/08/04 13:14:36;;;;;;;3.97;1.00;;;27.20;99.90;;;;;;5066158;28;20131;-71
2022/08/04 13:17:03;;;;;;;5.10;1.27;;;27.60;99.90;;;;;;5067901;28;20045;-71
2022/08/04 13:19:30;;;;;;;1.65;0.88;;;28.00;99.90;;;;;;5065673;28;20040;-71
2022/08/04 13:21:56;;;;;;;4.43;1.08;;;28.40;99.90;;;;;;5082979;28;20086;-71
2022/08/04 13:24:23;;;;;;;5.55;1.35;;;28.80;99.90;;;;;;5061024;28;20032;-72
2022/08/04 13:27:03;;;;;;;2.72;1.10;;;29.20;99.60;;;;;;5079897;28;20055;-72
2022/08/04 13:29:39;;;;;;;1.90;0.95;;;29.50;98.10;;;;;;5079951;28;20457;-71
2022/08/04 13:32:05;;;;;;;2.67;1.00;;;29.90;95.30;;;;;;5070055;28;20032;-71
2022/08/04 13:34:32;;;;;;;3.25;1.23;;;30.00;94.80;;;;;;5064063;28;20046;-71
2022/08/04 13:37:00;;;;;;;5.78;1.20;;;30.10;93.70;;;;;;5065672;28;20068;-71